createdAt,value
2019-03-04T00:01:11.002Z,12.00
2019-03-04T00:03:15.632Z,12.10
2019-03-04T00:05:19.420Z,12.00
2019-03-04T00:07:23.205Z,12.10
2019-03-04T00:09:27.111Z,12.00
2019-03-04T00:11:30.928Z,12.00
2019-03-04T00:13:35.437Z,12.00
2019-03-04T00:15:39.400Z,12.00
2019-03-04T00:17:43.867Z,12.00
2019-03-04T00:19:47.656Z,12.10
2019-03-04T00:21:51.460Z,12.10
2019-03-04T00:23:55.299Z,12.10
2019-03-04T00:25:59.458Z,12.00
2019-03-04T00:28:03.744Z,12.00
2019-03-04T00:30:08.075Z,11.90
2019-03-04T00:32:11.918Z,11.80
2019-03-04T00:34:16.017Z,11.80
2019-03-04T00:36:19.877Z,11.80
2019-03-04T00:38:23.696Z,11.70
2019-03-04T00:40:27.657Z,11.80
2019-03-04T00:42:31.460Z,11.90
2019-03-04T00:44:36.415Z,12.30
2019-03-04T00:46:40.296Z,12.40
2019-03-04T00:48:44.083Z,12.50
2019-03-04T00:50:47.940Z,12.60
2019-03-04T00:52:51.832Z,12.70
2019-03-04T00:54:55.614Z,12.70
2019-03-04T00:56:59.410Z,12.60
2019-03-04T00:59:03.439Z,12.50
2019-03-04T01:01:08.084Z,12.50
2019-03-04T01:03:12.001Z,12.40
2019-03-04T01:05:16.360Z,12.30
2019-03-04T01:07:20.170Z,12.30
2019-03-04T01:09:24.007Z,12.10
2019-03-04T01:11:28.160Z,12.00
2019-03-04T01:13:31.977Z,11.90
2019-03-04T01:15:36.572Z,11.80
2019-03-04T01:17:40.580Z,11.70
2019-03-04T01:19:44.377Z,11.60
2019-03-04T01:21:48.123Z,11.50
2019-03-04T01:23:52.010Z,11.40
2019-03-04T01:25:55.908Z,11.40
2019-03-04T01:28:00.328Z,11.30
2019-03-04T01:30:06.752Z,11.20
2019-03-04T01:32:10.527Z,11.20
2019-03-04T01:34:14.337Z,11.10
2019-03-04T01:36:18.102Z,11.10
2019-03-04T01:38:21.995Z,11.10
2019-03-04T01:40:25.851Z,11.00
2019-03-04T01:42:29.648Z,11.00
2019-03-04T01:44:33.678Z,11.00
2019-03-04T01:46:38.572Z,11.00
2019-03-04T01:48:42.374Z,11.00
2019-03-04T01:50:46.228Z,11.00
2019-03-04T01:52:50.283Z,11.00
2019-03-04T01:54:54.236Z,11.00
2019-03-04T01:56:58.091Z,10.90
2019-03-04T01:59:01.881Z,10.90
2019-03-04T02:01:07.023Z,10.80
2019-03-04T02:03:10.879Z,10.80
2019-03-04T02:05:14.957Z,10.70
2019-03-04T02:07:18.796Z,10.70
2019-03-04T02:09:23.868Z,10.60
2019-03-04T02:11:27.680Z,10.60
2019-03-04T02:13:31.611Z,10.60
2019-03-04T02:15:36.485Z,10.60
2019-03-04T02:17:40.298Z,10.60
2019-03-04T02:19:44.427Z,10.60
2019-03-04T02:21:48.464Z,10.60
2019-03-04T02:23:52.291Z,10.60
2019-03-04T02:26:23.105Z,10.60
2019-03-04T02:28:27.305Z,10.60
2019-03-04T02:30:31.172Z,10.50
2019-03-04T02:32:35.601Z,10.50
2019-03-04T02:34:39.653Z,10.50
2019-03-04T02:36:43.459Z,10.50
2019-03-04T02:38:47.428Z,10.60
2019-03-04T02:40:51.300Z,10.60
2019-03-04T02:42:55.063Z,10.60
2019-03-04T02:44:59.073Z,10.60
2019-03-04T02:47:02.955Z,10.60
2019-03-04T02:49:07.692Z,10.70
2019-03-04T02:51:11.495Z,10.70
2019-03-04T02:53:15.444Z,10.70
2019-03-04T02:55:19.405Z,10.70
2019-03-04T02:57:23.204Z,10.70
2019-03-04T02:59:27.104Z,10.80
2019-03-04T03:01:31.231Z,10.80
2019-03-04T03:03:35.784Z,10.80
2019-03-04T03:05:39.869Z,10.80
2019-03-04T03:07:43.737Z,10.80
2019-03-04T03:09:47.668Z,10.80
2019-03-04T03:11:51.460Z,10.80
2019-03-04T03:13:55.321Z,10.80
2019-03-04T03:15:59.143Z,10.80
2019-03-04T03:18:03.059Z,10.70
2019-03-04T03:20:09.171Z,10.80
2019-03-04T03:22:12.993Z,10.80
2019-03-04T03:24:16.810Z,10.80
2019-03-04T03:26:20.592Z,10.80
2019-03-04T03:28:24.475Z,10.80
2019-03-04T03:30:28.328Z,10.80
2019-03-04T03:32:32.116Z,10.80
2019-03-04T03:34:36.616Z,10.90
2019-03-04T03:36:40.513Z,10.80
2019-03-04T03:38:44.301Z,10.80
2019-03-04T03:40:48.103Z,10.80
2019-03-04T03:42:51.874Z,10.80
2019-03-04T03:44:55.794Z,10.80
2019-03-04T03:46:59.604Z,10.80
2019-03-04T03:49:03.476Z,10.80
2019-03-04T03:51:08.144Z,10.90
2019-03-04T03:53:12.247Z,10.80
2019-03-04T03:55:16.322Z,10.80
2019-03-04T03:57:20.249Z,10.80
2019-03-04T03:59:24.123Z,10.80
2019-03-04T04:01:27.939Z,10.90
2019-03-04T04:03:32.175Z,10.90
2019-03-04T04:05:37.373Z,10.90
2019-03-04T04:07:41.421Z,11.00
2019-03-04T04:09:45.231Z,11.00
2019-03-04T04:11:49.144Z,10.90
2019-03-04T04:13:52.972Z,10.90
2019-03-04T04:15:56.752Z,10.90
2019-03-04T04:18:00.504Z,11.00
2019-03-04T04:20:06.345Z,11.00
2019-03-04T04:22:10.487Z,10.90
2019-03-04T04:24:14.287Z,10.90
2019-03-04T04:26:21.540Z,10.90
2019-03-04T04:28:25.298Z,10.90
2019-03-04T04:30:31.049Z,10.90
2019-03-04T04:32:35.094Z,10.90
2019-03-04T04:34:39.377Z,10.90
2019-03-04T04:36:43.255Z,10.80
2019-03-04T04:38:47.045Z,10.70
2019-03-04T04:40:50.840Z,10.80
2019-03-04T04:42:54.648Z,10.70
2019-03-04T04:44:58.468Z,10.70
2019-03-04T04:47:07.011Z,10.70
2019-03-04T04:49:10.848Z,10.70
2019-03-04T04:51:14.631Z,10.60
2019-03-04T04:53:18.403Z,10.70
2019-03-04T04:55:22.304Z,10.70
2019-03-04T04:57:26.131Z,10.70
2019-03-04T04:59:29.928Z,10.70
2019-03-04T05:01:33.824Z,10.60
2019-03-04T05:03:39.081Z,10.50
2019-03-04T05:05:42.984Z,10.50
2019-03-04T05:07:46.886Z,10.50
2019-03-04T05:09:50.722Z,10.60
2019-03-04T05:11:54.468Z,10.50
2019-03-04T05:13:58.276Z,10.50
2019-03-04T05:16:02.159Z,10.50
2019-03-04T05:18:06.707Z,10.50
2019-03-04T05:20:13.202Z,10.60
2019-03-04T05:22:17.023Z,10.70
2019-03-04T05:24:20.770Z,10.60
2019-03-04T05:26:24.584Z,10.60
2019-03-04T05:28:28.416Z,10.70
2019-03-04T05:30:32.286Z,10.80
2019-03-04T05:32:36.983Z,10.90
2019-03-04T05:34:41.066Z,10.90
2019-03-04T05:36:44.975Z,10.80
2019-03-04T05:38:48.851Z,10.80
2019-03-04T05:40:52.648Z,10.90
2019-03-04T05:42:56.503Z,11.00
2019-03-04T05:45:00.759Z,11.10
2019-03-04T05:47:04.655Z,11.20
2019-03-04T05:49:09.672Z,11.10
2019-03-04T05:51:13.476Z,10.90
2019-03-04T05:53:17.217Z,11.00
2019-03-04T05:55:21.009Z,11.00
2019-03-04T05:57:24.893Z,10.90
2019-03-04T05:59:28.705Z,10.90
2019-03-04T06:01:34.384Z,11.00
2019-03-04T06:03:39.023Z,11.00
2019-03-04T06:05:43.201Z,11.10
2019-03-04T06:07:56.031Z,11.20
2019-03-04T06:09:59.856Z,11.20
2019-03-04T06:12:03.739Z,11.20
2019-03-04T06:14:09.090Z,11.30
2019-03-04T06:16:13.214Z,11.30
2019-03-04T06:18:17.043Z,11.30
2019-03-04T06:20:21.226Z,11.40
2019-03-04T06:22:25.076Z,11.40
2019-03-04T06:24:28.904Z,11.30
2019-03-04T06:26:32.762Z,11.30
2019-03-04T06:28:37.193Z,11.20
2019-03-04T06:30:41.463Z,11.20
2019-03-04T06:32:45.346Z,11.30
2019-03-04T06:34:49.312Z,11.30
2019-03-04T06:36:53.203Z,11.40
2019-03-04T06:38:57.056Z,11.40
2019-03-04T06:41:00.865Z,11.40
2019-03-04T06:43:04.963Z,11.40
2019-03-04T06:45:11.367Z,11.50
2019-03-04T06:47:15.163Z,11.40
2019-03-04T06:49:18.951Z,11.40
2019-03-04T06:51:39.562Z,11.40
2019-03-04T06:54:03.071Z,11.40
2019-03-04T06:56:29.692Z,11.40
2019-03-04T06:58:33.603Z,11.50
2019-03-04T07:01:01.938Z,11.50
2019-03-04T07:03:24.259Z,11.50
2019-03-04T07:05:48.483Z,11.50
2019-03-04T07:07:52.445Z,11.50
2019-03-04T07:09:56.241Z,11.50
2019-03-04T07:12:00.024Z,11.50
2019-03-04T07:14:04.179Z,11.60
2019-03-04T07:16:08.915Z,11.60
2019-03-04T07:18:12.771Z,11.50
2019-03-04T07:20:16.683Z,11.50
2019-03-04T07:22:20.495Z,11.70
2019-03-04T07:24:24.275Z,11.70
2019-03-04T07:26:28.176Z,11.70
2019-03-04T07:28:31.961Z,11.50
2019-03-04T07:30:35.800Z,11.20
2019-03-04T07:32:41.017Z,10.90
2019-03-04T07:34:44.969Z,10.20
2019-03-04T07:36:51.839Z,9.20
2019-03-04T07:39:00.392Z,7.80
2019-03-04T07:41:04.249Z,7.10
2019-03-04T07:43:09.097Z,7.00
2019-03-04T07:45:13.336Z,6.90
2019-03-04T07:47:17.092Z,7.00
2019-03-04T07:49:21.022Z,7.20
2019-03-04T07:51:25.322Z,7.30
2019-03-04T07:53:29.157Z,7.30
2019-03-04T07:55:32.890Z,7.30
2019-03-04T07:57:37.517Z,7.40
2019-03-04T07:59:41.515Z,7.40
2019-03-04T08:01:45.309Z,7.60
2019-03-04T08:03:49.098Z,7.70
2019-03-04T08:05:53.333Z,7.70
2019-03-04T08:07:57.179Z,7.70
2019-03-04T08:10:44.687Z,7.70
2019-03-04T08:13:10.051Z,7.90
2019-03-04T08:15:13.919Z,8.00
2019-03-04T08:17:18.056Z,8.10
2019-03-04T08:19:21.947Z,8.00
2019-03-04T08:21:25.687Z,8.10
2019-03-04T08:23:29.590Z,8.20
2019-03-04T08:25:33.823Z,8.20
2019-03-04T08:27:38.251Z,8.20
2019-03-04T08:29:42.512Z,8.30
2019-03-04T08:31:49.363Z,8.40
2019-03-04T08:33:53.147Z,8.70
2019-03-04T08:35:57.027Z,8.70
2019-03-04T08:38:00.908Z,8.50
2019-03-04T08:40:05.646Z,8.00
2019-03-04T08:42:10.012Z,7.80
2019-03-04T08:44:13.835Z,7.70
2019-03-04T08:46:17.582Z,7.70
2019-03-04T08:48:21.432Z,7.70
2019-03-04T08:50:25.387Z,7.60
2019-03-04T08:52:29.318Z,7.60
2019-03-04T08:54:33.114Z,7.60
2019-03-04T08:56:36.943Z,7.70
2019-03-04T08:58:41.288Z,7.80
2019-03-04T09:00:45.263Z,7.80
2019-03-04T09:02:49.242Z,8.00
2019-03-04T09:04:53.028Z,8.10
2019-03-04T09:06:57.427Z,8.20
2019-03-04T09:09:01.320Z,8.40
2019-03-04T09:11:05.136Z,8.40
2019-03-04T09:13:09.217Z,8.50
2019-03-04T09:15:13.604Z,8.60
2019-03-04T09:17:17.451Z,8.80
2019-03-04T09:19:21.284Z,8.80
2019-03-04T09:21:25.226Z,8.80
2019-03-04T09:23:29.102Z,8.90
2019-03-04T09:25:45.895Z,9.10
2019-03-04T09:27:50.111Z,9.10
2019-03-04T09:29:53.924Z,9.20
2019-03-04T09:31:57.752Z,9.30
2019-03-04T09:34:01.616Z,9.40
2019-03-04T09:36:05.571Z,9.50
2019-03-04T09:38:09.571Z,9.50
2019-03-04T09:40:15.712Z,9.60
2019-03-04T09:42:23.192Z,9.60
2019-03-04T09:44:27.192Z,9.60
2019-03-04T09:46:30.975Z,9.60
2019-03-04T09:48:34.919Z,9.80
2019-03-04T09:50:39.300Z,10.00
2019-03-04T09:52:43.233Z,10.00
2019-03-04T09:54:47.051Z,10.10
2019-03-04T09:56:50.961Z,10.20
2019-03-04T09:58:54.747Z,10.10
2019-03-04T10:01:35.823Z,10.20
2019-03-04T10:04:17.255Z,10.50
2019-03-04T10:06:46.191Z,10.80
2019-03-04T10:09:50.311Z,10.90
2019-03-04T10:12:19.952Z,11.00
2019-03-04T10:15:14.607Z,11.70
2019-03-04T10:17:56.803Z,12.50
2019-03-04T10:20:41.381Z,12.50
2019-03-04T10:23:00.687Z,11.90
2019-03-04T10:25:34.792Z,12.10
2019-03-04T10:28:17.227Z,12.30
2019-03-04T10:31:00.537Z,11.80
2019-03-04T10:33:44.883Z,12.90
2019-03-04T10:36:22.463Z,12.50
2019-03-04T10:38:58.646Z,12.70
2019-03-04T10:41:37.790Z,11.80
2019-03-04T10:44:21.011Z,12.90
2019-03-04T10:46:58.387Z,13.30
2019-03-04T10:49:02.129Z,13.40
2019-03-04T10:51:06.028Z,13.00
2019-03-04T10:53:10.860Z,13.30
2019-03-04T10:55:14.800Z,14.20
2019-03-04T10:57:18.596Z,14.60
2019-03-04T10:59:22.568Z,14.30
2019-03-04T11:01:30.465Z,14.50
2019-03-04T11:03:31.965Z,13.90
2019-03-04T11:05:35.931Z,13.90
2019-03-04T11:07:40.299Z,14.20
2019-03-04T11:09:44.711Z,13.90
2019-03-04T11:11:48.590Z,13.70
2019-03-04T11:13:52.394Z,13.60
2019-03-04T11:15:56.284Z,14.20
2019-03-04T11:18:00.127Z,15.00
2019-03-04T11:20:05.764Z,15.30
2019-03-04T11:22:10.039Z,14.80
2019-03-04T11:24:14.377Z,15.10
2019-03-04T11:26:18.214Z,15.70
2019-03-04T11:28:22.171Z,15.80
2019-03-04T11:30:29.545Z,14.00
2019-03-04T11:32:33.425Z,13.40
2019-03-04T11:34:37.291Z,13.30
2019-03-04T11:36:41.974Z,11.80
2019-03-04T11:38:48.262Z,10.70
2019-03-04T11:40:52.079Z,10.10
2019-03-04T11:42:55.932Z,9.40
2019-03-04T11:44:59.846Z,9.20
2019-03-04T11:47:03.713Z,9.60
2019-03-04T11:49:07.532Z,9.50
2019-03-04T11:51:12.255Z,9.20
2019-03-04T11:53:16.204Z,8.90
2019-03-04T11:55:20.774Z,8.70
2019-03-04T11:57:24.747Z,8.40
2019-03-04T11:59:28.544Z,8.20
2019-03-04T12:01:50.834Z,8.00
2019-03-04T12:03:54.580Z,7.60
2019-03-04T12:05:58.415Z,7.40
2019-03-04T12:08:02.312Z,7.70
2019-03-04T12:10:09.311Z,8.60
2019-03-04T12:12:13.557Z,9.60
2019-03-04T12:14:17.410Z,11.30
2019-03-04T12:16:21.219Z,13.20
2019-03-04T12:18:25.173Z,12.60
2019-03-04T12:20:29.031Z,12.30
2019-03-04T12:22:32.930Z,13.50
2019-03-04T12:24:36.871Z,12.70
2019-03-04T12:26:41.711Z,12.40
2019-03-04T12:28:45.523Z,13.30
2019-03-04T12:30:49.399Z,13.00
2019-03-04T12:32:53.655Z,11.90
2019-03-04T12:34:57.504Z,11.20
2019-03-04T12:37:01.427Z,10.50
2019-03-04T12:39:06.695Z,10.40
2019-03-04T12:41:11.416Z,10.60
2019-03-04T12:43:15.251Z,10.80
2019-03-04T12:45:19.247Z,11.00
2019-03-04T12:47:23.202Z,11.90
2019-03-04T12:49:27.087Z,11.50
2019-03-04T12:51:43.207Z,12.70
2019-03-04T12:53:47.004Z,12.30
2019-03-04T12:55:50.857Z,13.00
2019-03-04T12:57:54.843Z,12.80
2019-03-04T12:59:58.832Z,12.00
2019-03-04T13:02:02.647Z,11.20
2019-03-04T13:04:06.468Z,10.60
2019-03-04T13:06:10.717Z,9.90
2019-03-04T13:08:14.899Z,9.70
2019-03-04T13:10:19.289Z,9.50
2019-03-04T13:12:23.264Z,9.40
2019-03-04T13:14:27.018Z,9.40
2019-03-04T13:16:30.869Z,9.30
2019-03-04T13:18:34.758Z,9.20
2019-03-04T13:20:38.791Z,8.90
2019-03-04T13:22:44.102Z,8.80
2019-03-04T13:24:47.955Z,8.60
2019-03-04T13:26:51.719Z,8.60
2019-03-04T13:28:55.548Z,8.60
2019-03-04T13:30:59.487Z,8.50
2019-03-04T13:33:03.343Z,8.30
2019-03-04T13:35:08.905Z,8.10
2019-03-04T13:37:31.918Z,7.90
2019-03-04T13:39:35.678Z,7.70
2019-03-04T13:41:39.705Z,6.60
2019-03-04T13:43:44.030Z,6.30
2019-03-04T13:45:48.060Z,6.10
2019-03-04T13:47:51.927Z,6.00
2019-03-04T13:49:55.698Z,6.10
2019-03-04T13:51:59.576Z,6.10
2019-03-04T13:54:03.440Z,6.10
2019-03-04T13:56:06.992Z,6.20
2019-03-04T13:58:11.789Z,6.20
2019-03-04T14:00:17.688Z,6.20
2019-03-04T14:02:21.470Z,6.20
2019-03-04T14:04:25.471Z,6.20
2019-03-04T14:06:29.251Z,6.10
2019-03-04T14:08:33.295Z,6.20
2019-03-04T14:10:37.641Z,6.20
2019-03-04T14:12:42.389Z,6.20
2019-03-04T14:14:46.137Z,6.10
2019-03-04T14:16:50.467Z,6.10
2019-03-04T14:18:54.365Z,6.10
2019-03-04T14:20:58.220Z,6.10
2019-03-04T14:23:01.983Z,6.10
2019-03-04T14:25:07.327Z,6.10
2019-03-04T14:27:11.601Z,6.10
2019-03-04T14:29:15.483Z,6.10
2019-03-04T14:31:19.307Z,6.10
2019-03-04T14:33:23.179Z,6.10
2019-03-04T14:35:27.367Z,6.10
2019-03-04T14:37:31.276Z,6.20
2019-03-04T14:39:35.240Z,6.20
2019-03-04T14:41:39.103Z,6.20
2019-03-04T14:43:44.298Z,6.30
2019-03-04T14:45:48.170Z,6.30
2019-03-04T14:47:52.128Z,6.40
2019-03-04T14:50:03.318Z,6.40
2019-03-04T14:52:01.479Z,6.50
2019-03-04T14:54:05.796Z,6.70
2019-03-04T14:56:09.829Z,7.40
2019-03-04T14:58:14.252Z,8.40
2019-03-04T15:00:21.383Z,9.40
2019-03-04T15:02:25.213Z,9.10
2019-03-04T15:04:29.138Z,8.70
2019-03-04T15:06:32.939Z,8.50
2019-03-04T15:08:36.854Z,8.40
2019-03-04T15:10:42.624Z,8.10
2019-03-04T15:12:47.096Z,7.70
2019-03-04T15:14:50.940Z,7.80
2019-03-04T15:17:28.623Z,8.10
2019-03-04T15:19:32.420Z,8.90
2019-03-04T15:21:36.306Z,9.50
2019-03-04T15:23:41.027Z,9.20
2019-03-04T15:25:45.443Z,9.50
2019-03-04T15:27:49.367Z,11.00
2019-03-04T15:29:53.251Z,11.00
2019-03-04T15:31:57.237Z,9.60
2019-03-04T15:34:01.169Z,8.90
2019-03-04T15:36:05.191Z,8.40
2019-03-04T15:38:09.163Z,8.10
2019-03-04T15:40:14.632Z,7.90
2019-03-04T15:42:18.808Z,8.10
2019-03-04T15:44:22.944Z,8.40
2019-03-04T15:46:27.124Z,8.50
2019-03-04T15:48:31.244Z,8.20
2019-03-04T15:50:35.182Z,8.20
2019-03-04T15:52:39.155Z,7.90
2019-03-04T15:54:43.725Z,7.90
2019-03-04T15:56:48.402Z,7.80
2019-03-04T15:58:52.253Z,8.00
2019-03-04T16:00:56.295Z,7.90
2019-03-04T16:03:00.342Z,7.80
2019-03-04T16:05:06.206Z,7.80
2019-03-04T16:07:11.999Z,7.70
2019-03-04T16:09:19.035Z,7.60
2019-03-04T16:11:24.487Z,7.40
2019-03-04T16:13:28.383Z,7.40
2019-03-04T16:15:32.533Z,7.40
2019-03-04T16:17:36.308Z,7.30
2019-03-04T16:19:40.236Z,7.30
2019-03-04T16:21:44.963Z,7.20
2019-03-04T16:23:48.808Z,7.10
2019-03-04T16:25:52.767Z,7.10
2019-03-04T16:28:02.375Z,7.00
2019-03-04T16:30:08.544Z,7.00
2019-03-04T16:32:13.479Z,7.00
2019-03-04T16:34:36.536Z,7.00
2019-03-04T16:36:40.395Z,7.00
2019-03-04T16:38:45.188Z,7.00
2019-03-04T16:40:49.145Z,7.00
2019-03-04T16:42:53.185Z,6.90
2019-03-04T16:44:57.111Z,6.90
2019-03-04T16:47:00.982Z,6.90
2019-03-04T16:49:05.046Z,6.90
2019-03-04T16:51:08.911Z,6.90
2019-03-04T16:53:14.324Z,6.80
2019-03-04T16:55:18.246Z,6.80
2019-03-04T16:57:22.174Z,6.70
2019-03-04T16:59:25.970Z,6.70
2019-03-04T17:01:29.799Z,6.70
2019-03-04T17:03:33.671Z,6.60
2019-03-04T17:05:37.548Z,6.50
2019-03-04T17:07:42.112Z,6.40
2019-03-04T17:09:46.211Z,6.40
2019-03-04T17:11:50.927Z,6.40
2019-03-04T17:13:54.800Z,6.40
2019-03-04T17:15:58.994Z,6.40
2019-03-04T17:18:02.947Z,6.30
2019-03-04T17:20:08.268Z,6.20
2019-03-04T17:22:12.593Z,6.10
2019-03-04T17:24:17.019Z,6.10
2019-03-04T17:26:20.868Z,6.00
2019-03-04T17:28:24.771Z,6.00
2019-03-04T17:30:28.751Z,6.00
2019-03-04T17:32:32.591Z,6.00
2019-03-04T17:34:36.659Z,6.00
2019-03-04T17:36:40.459Z,6.00
2019-03-04T17:38:45.039Z,6.00
2019-03-04T17:40:48.839Z,6.00
2019-03-04T17:42:52.789Z,5.90
2019-03-04T17:44:56.679Z,6.00
2019-03-04T17:47:00.806Z,6.00
2019-03-04T17:49:04.670Z,5.90
2019-03-04T17:51:08.576Z,5.90
2019-03-04T17:53:13.119Z,5.90
2019-03-04T17:55:17.150Z,5.80
2019-03-04T17:57:20.896Z,5.80
2019-03-04T17:59:24.737Z,5.80
2019-03-04T18:01:28.770Z,5.80
2019-03-04T18:03:32.603Z,5.80
2019-03-04T18:05:36.379Z,5.80
2019-03-04T18:07:40.263Z,5.70
2019-03-04T18:09:44.979Z,5.70
2019-03-04T18:11:48.847Z,5.70
2019-03-04T18:13:52.871Z,5.70
2019-03-04T18:15:56.843Z,5.70
2019-03-04T18:18:00.621Z,5.70
2019-03-04T18:20:06.174Z,5.70
2019-03-04T18:22:10.035Z,5.70
2019-03-04T18:24:14.490Z,5.70
2019-03-04T18:26:25.210Z,5.70
2019-03-04T18:28:57.315Z,5.60
2019-03-04T18:31:23.718Z,5.60
2019-03-04T18:33:45.147Z,5.50
2019-03-04T18:36:14.575Z,5.60
2019-03-04T18:38:58.460Z,5.60
2019-03-04T18:41:40.738Z,5.60
2019-03-04T18:44:07.824Z,5.60
2019-03-04T18:46:45.287Z,5.50
2019-03-04T18:49:01.124Z,5.50
2019-03-04T18:51:05.036Z,5.50
2019-03-04T18:53:08.959Z,5.50
2019-03-04T18:55:14.477Z,5.60
2019-03-04T18:57:18.412Z,5.60
2019-03-04T18:59:22.272Z,5.60
2019-03-04T19:01:26.217Z,5.60
2019-03-04T19:03:30.095Z,5.60
2019-03-04T19:05:33.996Z,5.70
2019-03-04T19:07:37.863Z,5.70
2019-03-04T19:09:41.700Z,5.60
2019-03-04T19:11:47.341Z,5.60
2019-03-04T19:13:51.282Z,5.70
2019-03-04T19:15:55.407Z,5.60
2019-03-04T19:17:59.277Z,5.60
2019-03-04T19:20:03.175Z,5.70
2019-03-04T19:22:07.177Z,5.70
2019-03-04T19:24:10.944Z,5.70
2019-03-04T19:26:15.661Z,5.70
2019-03-04T19:28:19.838Z,5.70
2019-03-04T19:30:23.630Z,5.70
2019-03-04T19:32:27.369Z,5.70
2019-03-04T19:34:31.395Z,5.70
2019-03-04T19:36:35.269Z,5.70
2019-03-04T19:38:39.170Z,5.60
2019-03-04T19:40:43.412Z,5.60
2019-03-04T19:42:47.502Z,5.60
2019-03-04T19:44:51.390Z,5.60
2019-03-04T19:46:55.284Z,5.60
2019-03-04T19:48:59.180Z,5.60
2019-03-04T19:51:03.052Z,5.60
2019-03-04T19:53:07.004Z,5.60
2019-03-04T19:55:12.628Z,5.60
2019-03-04T19:57:17.126Z,5.60
2019-03-04T19:59:21.023Z,5.60
2019-03-04T20:01:24.947Z,5.60
2019-03-04T20:03:29.026Z,5.60
2019-03-04T20:05:33.404Z,5.60
2019-03-04T20:07:37.378Z,5.60
2019-03-04T20:09:41.265Z,5.50
2019-03-04T20:11:45.999Z,5.50
2019-03-04T20:13:49.903Z,5.50
2019-03-04T20:15:54.099Z,5.50
2019-03-04T20:17:59.464Z,5.60
2019-03-04T20:20:04.812Z,5.60
2019-03-04T20:22:08.668Z,5.50
2019-03-04T20:24:12.564Z,5.40
2019-03-04T20:26:17.328Z,5.40
2019-03-04T20:28:21.331Z,5.40
2019-03-04T20:30:25.677Z,5.50
2019-03-04T20:32:29.855Z,5.50
2019-03-04T20:34:33.705Z,5.60
2019-03-04T20:36:37.882Z,5.60
2019-03-04T20:38:45.952Z,5.60
2019-03-04T20:40:50.005Z,5.60
2019-03-04T20:42:53.958Z,5.70
2019-03-04T20:44:57.873Z,5.70
2019-03-04T20:47:01.716Z,5.70
2019-03-04T20:49:05.675Z,5.80
2019-03-04T20:51:09.617Z,5.80
2019-03-04T20:53:14.543Z,5.80
2019-03-04T20:55:19.365Z,5.90
2019-03-04T20:57:23.203Z,5.90
2019-03-04T20:59:27.031Z,6.00
2019-03-04T21:01:31.097Z,6.00
2019-03-04T21:03:35.292Z,6.00
2019-03-04T21:05:39.456Z,6.00
2019-03-04T21:07:44.685Z,6.00
2019-03-04T21:09:49.635Z,6.00
2019-03-04T21:11:53.492Z,6.00
2019-03-04T21:13:57.639Z,6.00
2019-03-04T21:16:01.519Z,6.00
2019-03-04T21:18:06.193Z,6.10
2019-03-04T21:20:10.619Z,6.10
2019-03-04T21:22:15.889Z,6.10
2019-03-04T21:24:19.728Z,6.10
2019-03-04T21:26:29.884Z,6.10
2019-03-04T21:29:30.113Z,6.10
2019-03-04T21:31:44.906Z,6.10
2019-03-04T21:33:58.732Z,6.10
2019-03-04T21:36:40.978Z,6.10
2019-03-04T21:38:46.005Z,6.10
2019-03-04T21:41:00.437Z,6.00
2019-03-04T21:43:16.078Z,6.10
2019-03-04T21:45:56.486Z,6.10
2019-03-04T21:48:04.717Z,6.10
2019-03-04T21:50:10.198Z,6.00
2019-03-04T21:52:31.694Z,6.00
2019-03-04T21:54:35.684Z,6.00
2019-03-04T21:56:46.956Z,6.00
2019-03-04T21:58:50.906Z,6.00
2019-03-04T22:01:06.773Z,6.00
2019-03-04T22:03:19.859Z,6.00
2019-03-04T22:05:23.889Z,6.00
2019-03-04T22:07:27.880Z,6.00
2019-03-04T22:09:31.949Z,6.00
2019-03-04T22:11:35.864Z,6.00
2019-03-04T22:13:39.683Z,6.00
2019-03-04T22:15:43.593Z,6.00
2019-03-04T22:17:48.128Z,5.90
2019-03-04T22:19:52.559Z,5.90
2019-03-04T22:21:56.416Z,5.80
2019-03-04T22:24:01.073Z,5.80
2019-03-04T22:26:05.247Z,5.70
2019-03-04T22:28:09.124Z,5.70
2019-03-04T22:30:15.114Z,5.60
2019-03-04T22:32:19.312Z,5.60
2019-03-04T22:34:23.147Z,5.70
2019-03-04T22:36:27.391Z,5.70
2019-03-04T22:38:31.327Z,5.80
2019-03-04T22:40:35.217Z,5.80
2019-03-04T22:42:39.783Z,5.80
2019-03-04T22:44:43.592Z,5.80
2019-03-04T22:46:48.161Z,5.80
2019-03-04T22:48:51.951Z,5.80
2019-03-04T22:50:55.765Z,5.90
2019-03-04T22:52:59.552Z,5.90
2019-03-04T22:55:03.703Z,5.90
2019-03-04T22:57:07.618Z,5.90
2019-03-04T22:59:11.532Z,5.80
2019-03-04T23:01:50.670Z,5.80
2019-03-04T23:04:01.186Z,5.80
2019-03-04T23:06:05.599Z,5.80
2019-03-04T23:08:09.540Z,5.90
2019-03-04T23:10:32.935Z,5.90
2019-03-04T23:13:00.275Z,5.80
2019-03-04T23:15:06.687Z,5.90
2019-03-04T23:17:10.484Z,5.80
2019-03-04T23:19:14.561Z,5.80
2019-03-04T23:21:19.327Z,5.80
2019-03-04T23:23:23.219Z,5.80
2019-03-04T23:25:27.015Z,5.90
2019-03-04T23:27:31.039Z,5.90
2019-03-04T23:29:34.814Z,5.90
2019-03-04T23:31:38.740Z,5.90
2019-03-04T23:33:42.545Z,5.80
2019-03-04T23:35:47.623Z,5.80
2019-03-04T23:37:51.487Z,5.80
2019-03-04T23:39:55.305Z,5.90
2019-03-04T23:41:59.074Z,5.90
2019-03-04T23:44:03.087Z,5.90
2019-03-04T23:46:07.026Z,5.90
2019-03-04T23:48:10.855Z,5.90
2019-03-04T23:50:19.775Z,5.90
2019-03-04T23:52:23.541Z,5.90
2019-03-04T23:54:27.434Z,5.90
2019-03-04T23:56:31.234Z,6.00
2019-03-04T23:58:35.103Z,5.90
